Time;durP1;ratioP1;P1;durP2;ratioP2;P2;SDS_P1;SDS_P2;PMS_P1;PMS_P2;Temp;Humidity;BMP_temperature;BMP_pressure;BME280_temperature;BME280_humidity;BME280_pressure;Samples;Min_cycle;Max_cycle;Signal;HPM_P1;HPM_P2
2022/07/30 00:01:33;;;;;;;22.40;13.32;;;;;;;;;;5066698;22;20359;-78
2022/07/30 00:03:58;;;;;;;21.00;11.10;;;;;;;;;;5047160;28;20494;-74
2022/07/30 00:06:23;;;;;;;20.13;12.40;;;;;;;;;;5052614;28;20029;-74
2022/07/30 00:08:48;;;;;;;19.15;11.38;;;;;;;;;;5051480;28;20017;-75
2022/07/30 00:11:14;;;;;;;16.97;11.60;;;;;;;;;;5052094;28;20016;-74
2022/07/30 00:13:39;;;;;;;17.63;12.18;;;;;;;;;;5042576;28;20265;-76
2022/07/30 00:16:04;;;;;;;21.50;12.10;;;;;;;;;;5047796;28;20013;-77
2022/07/30 00:18:29;;;;;;;18.73;11.20;;;;;;;;;;5049367;28;20075;-77
2022/07/30 00:20:55;;;;;;;19.70;11.95;;;;;;;;;;5039184;28;20446;-74
2022/07/30 00:23:20;;;;;;;21.60;12.07;;;;;;;;;;5046852;28;20087;-73
2022/07/30 00:25:45;;;;;;;15.90;10.07;;;;;;;;;;5053512;28;20056;-74
2022/07/30 00:28:11;;;;;;;19.58;11.88;;;;;;;;;;5033132;28;20029;-74
2022/07/30 00:30:37;;;;;;;19.23;10.70;;;;;;;;;;5034208;28;20104;-76
2022/07/30 00:33:02;;;;;;;19.50;12.35;;;;;;;;;;5033241;28;20021;-76
2022/07/30 00:35:28;;;;;;;20.27;10.52;;;;;;;;;;5041954;28;20037;-76
2022/07/30 00:37:53;;;;;;;17.65;10.75;;;;;;;;;;5053222;28;20033;-74
2022/07/30 00:40:18;;;;;;;19.50;10.67;;;;;;;;;;5034977;28;20093;-74
2022/07/30 00:42:44;;;;;;;22.15;12.30;;;;;;;;;;5031452;28;20766;-73
2022/07/30 00:45:10;;;;;;;15.23;9.95;;;;;;;;;;5048559;28;20029;-76
2022/07/30 00:47:36;;;;;;;18.58;11.48;;;;;;;;;;5032885;28;20547;-76
2022/07/30 00:50:03;;;;;;;19.27;11.07;;;;;;;;;;5048790;28;20013;-76
2022/07/30 00:52:29;;;;;;;16.75;11.77;;;;;;;;;;5033007;28;20505;-74
2022/07/30 00:54:54;;;;;;;17.83;11.45;;;;;;;;;;5045165;28;20022;-74
2022/07/30 00:57:20;;;;;;;19.33;11.48;;;;;;;;;;5035980;28;20041;-74
2022/07/30 00:59:45;;;;;;;20.10;10.87;;;;;;;;;;5033211;28;20029;-76
2022/07/30 01:02:11;;;;;;;19.45;11.02;;;;;;;;;;5032188;28;20799;-76
2022/07/30 01:04:37;;;;;;;16.17;10.23;;;;;;;;;;5047941;28;20057;-74
2022/07/30 01:07:02;;;;;;;16.55;10.02;;;;;;;;;;5031552;28;20052;-74
2022/07/30 01:09:27;;;;;;;18.83;10.57;;;;;;;;;;5032076;28;20056;-74
2022/07/30 01:11:52;;;;;;;20.87;11.63;;;;;;;;;;5033240;28;20104;-75
2022/07/30 01:14:18;;;;;;;19.08;10.40;;;;;;;;;;5047252;28;20265;-76
2022/07/30 01:16:43;;;;;;;20.63;11.00;;;;;;;;;;5049501;28;20060;-74
2022/07/30 01:22:08;;;;;;;17.95;9.98;;;;;;;;;;5032616;28;20109;-76
2022/07/30 01:24:35;;;;;;;19.25;10.30;;;;;;;;;;5047949;28;20489;-76
2022/07/30 01:27:01;;;;;;;19.50;10.88;;;;;;;;;;5031944;28;20029;-73
2022/07/30 01:29:27;;;;;;;18.85;8.85;;;;;;;;;;5031985;28;20128;-76
2022/07/30 01:31:54;;;;;;;12.73;9.98;;;;;;;;;;5048473;28;20017;-76
2022/07/30 01:34:21;;;;;;;15.10;9.30;;;;;;;;;;5032431;28;20029;-74
2022/07/30 01:36:46;;;;;;;20.25;10.52;;;;;;;;;;5036994;28;20037;-76
2022/07/30 01:39:13;;;;;;;15.68;8.70;;;;;;;;;;5031941;28;20455;-76
2022/07/30 01:41:40;;;;;;;10.70;8.18;;;;;;;;;;5031413;28;20363;-77
2022/07/30 01:44:05;;;;;;;15.68;8.32;;;;;;;;;;5032597;28;20025;-76
2022/07/30 01:46:31;;;;;;;14.75;9.30;;;;;;;;;;5032228;28;20022;-76
2022/07/30 01:48:57;;;;;;;13.90;8.43;;;;;;;;;;5032109;28;20029;-74
2022/07/30 01:51:23;;;;;;;17.77;8.75;;;;;;;;;;5030726;28;20108;-74
2022/07/30 01:53:50;;;;;;;13.15;8.80;;;;;;;;;;5031775;28;20116;-74
2022/07/30 01:56:18;;;;;;;15.98;7.57;;;;;;;;;;5046145;28;20025;-73
2022/07/30 01:58:45;;;;;;;15.38;8.90;;;;;;;;;;5036665;28;20049;-75
2022/07/30 02:01:10;;;;;;;15.82;8.90;;;;;;;;;;5031403;28;20489;-73
2022/07/30 02:03:35;;;;;;;15.30;10.32;;;;;;;;;;5030657;28;20033;-74
2022/07/30 02:06:06;;;;;;;18.88;9.90;;;;;;;;;;5032077;28;20085;-76
2022/07/30 02:08:34;;;;;;;13.02;8.57;;;;;;;;;;5031762;28;20028;-74
2022/07/30 02:11:03;;;;;;;18.63;9.32;;;;;;;;;;5047013;28;20032;-76
2022/07/30 02:13:29;;;;;;;14.80;7.82;;;;;;;;;;5039554;28;20033;-75
2022/07/30 02:16:20;;;;;;;12.35;8.15;;;;;;;;;;5049204;28;20021;-77
2022/07/30 02:18:46;;;;;;;12.57;7.68;;;;;;;;;;5029904;28;20124;-76
2022/07/30 02:21:11;;;;;;;15.48;8.95;;;;;;;;;;5031825;28;20112;-73
2022/07/30 02:23:42;;;;;;;18.05;9.82;;;;;;;;;;5041558;28;20022;-76
2022/07/30 02:26:08;;;;;;;16.60;9.10;;;;;;;;;;5045396;28;20053;-73
2022/07/30 02:28:36;;;;;;;14.73;8.60;;;;;;;;;;5031335;28;20481;-76
2022/07/30 02:31:02;;;;;;;12.48;8.32;;;;;;;;;;5031644;28;20021;-76
2022/07/30 02:33:29;;;;;;;15.68;8.18;;;;;;;;;;5031052;28;20044;-76
2022/07/30 02:35:55;;;;;;;10.95;7.90;;;;;;;;;;5043532;28;20086;-76
2022/07/30 02:38:21;;;;;;;14.25;9.45;;;;;;;;;;5019256;28;20087;-75
2022/07/30 02:40:47;;;;;;;13.60;8.52;;;;;;;;;;5019083;28;20026;-76
2022/07/30 02:43:16;;;;;;;17.88;8.93;;;;;;;;;;5030014;28;20056;-73
2022/07/30 02:45:43;;;;;;;13.30;8.13;;;;;;;;;;5030215;28;20045;-76
2022/07/30 02:48:09;;;;;;;14.68;7.97;;;;;;;;;;5031252;28;20087;-76
2022/07/30 02:50:35;;;;;;;11.27;7.68;;;;;;;;;;5031580;28;20028;-76
2022/07/30 02:53:01;;;;;;;16.88;8.05;;;;;;;;;;5030059;28;20037;-75
2022/07/30 02:55:28;;;;;;;10.32;6.90;;;;;;;;;;5031760;28;20025;-73
2022/07/30 02:57:54;;;;;;;12.30;8.57;;;;;;;;;;5030379;28;20030;-74
2022/07/30 03:00:20;;;;;;;9.45;7.90;;;;;;;;;;5031401;28;20433;-75
2022/07/30 03:02:46;;;;;;;13.43;8.05;;;;;;;;;;5029975;28;20084;-74
2022/07/30 03:05:12;;;;;;;9.43;7.07;;;;;;;;;;5045841;28;20032;-75
2022/07/30 03:07:38;;;;;;;12.32;7.78;;;;;;;;;;5011488;28;20097;-75
2022/07/30 03:10:04;;;;;;;10.10;6.93;;;;;;;;;;5011740;28;20097;-76
2022/07/30 03:12:30;;;;;;;11.50;7.50;;;;;;;;;;5016629;28;20087;-74
2022/07/30 03:14:56;;;;;;;12.55;7.13;;;;;;;;;;5043298;28;20017;-74
2022/07/30 03:17:22;;;;;;;9.63;7.57;;;;;;;;;;5030649;28;20065;-75
2022/07/30 03:19:48;;;;;;;8.98;6.90;;;;;;;;;;5035101;28;20092;-73
2022/07/30 03:22:15;;;;;;;11.00;6.72;;;;;;;;;;5044327;28;20071;-73
2022/07/30 03:24:42;;;;;;;9.30;7.38;;;;;;;;;;5030727;28;20068;-75
2022/07/30 03:27:07;;;;;;;13.23;7.57;;;;;;;;;;5030894;28;20018;-74
2022/07/30 03:29:36;;;;;;;11.60;8.00;;;;;;;;;;5031734;28;20074;-75
2022/07/30 03:32:03;;;;;;;13.98;7.30;;;;;;;;;;5034844;28;20013;-74
2022/07/30 03:34:28;;;;;;;9.93;6.95;;;;;;;;;;5018772;28;20548;-75
2022/07/30 03:36:54;;;;;;;10.50;7.57;;;;;;;;;;5040691;28;20044;-75
2022/07/30 03:39:20;;;;;;;9.60;6.50;;;;;;;;;;5034661;28;20029;-75
2022/07/30 03:41:45;;;;;;;7.78;6.57;;;;;;;;;;5047751;28;20052;-75
2022/07/30 03:44:10;;;;;;;12.73;8.23;;;;;;;;;;5034490;28;20033;-75
2022/07/30 03:46:36;;;;;;;9.57;7.80;;;;;;;;;;5034208;28;20030;-73
2022/07/30 03:49:04;;;;;;;11.77;8.00;;;;;;;;;;5033710;28;20063;-75
2022/07/30 03:51:31;;;;;;;11.40;7.13;;;;;;;;;;5045220;28;20052;-75
2022/07/30 03:53:56;;;;;;;10.65;7.25;;;;;;;;;;5032146;28;20032;-74
2022/07/30 03:56:21;;;;;;;11.10;6.88;;;;;;;;;;5033956;28;20104;-75
2022/07/30 03:58:47;;;;;;;10.73;7.18;;;;;;;;;;5034241;28;20018;-74
2022/07/30 04:01:12;;;;;;;10.27;7.85;;;;;;;;;;5028861;28;20406;-75
2022/07/30 04:03:37;;;;;;;11.05;7.90;;;;;;;;;;5014041;28;20029;-75
2022/07/30 04:06:03;;;;;;;14.63;8.63;;;;;;;;;;5030727;28;20071;-76
2022/07/30 04:08:28;;;;;;;14.23;7.85;;;;;;;;;;5033616;28;20025;-76
2022/07/30 04:10:53;;;;;;;14.70;7.82;;;;;;;;;;5032393;28;20056;-76
2022/07/30 04:13:19;;;;;;;14.30;7.15;;;;;;;;;;5039247;28;20094;-76
2022/07/30 04:15:48;;;;;;;10.73;7.85;;;;;;;;;;5053075;28;20017;-76
2022/07/30 04:18:14;;;;;;;13.98;8.13;;;;;;;;;;5028779;28;20045;-76
2022/07/30 04:20:40;;;;;;;9.52;7.60;;;;;;;;;;5028149;28;20060;-76
2022/07/30 04:23:06;;;;;;;10.23;7.35;;;;;;;;;;5033214;28;20519;-77
2022/07/30 04:25:32;;;;;;;11.73;7.57;;;;;;;;;;5013813;28;20033;-76
2022/07/30 04:27:58;;;;;;;8.95;7.82;;;;;;;;;;5019521;28;20498;-76
2022/07/30 04:30:23;;;;;;;11.50;7.95;;;;;;;;;;5048587;28;20017;-74
2022/07/30 04:32:48;;;;;;;9.32;7.22;;;;;;;;;;5033120;28;20029;-76
2022/07/30 04:35:15;;;;;;;9.65;7.32;;;;;;;;;;5038073;28;20044;-75
2022/07/30 04:37:40;;;;;;;17.65;8.63;;;;;;;;;;5035441;28;20428;-74
2022/07/30 04:40:05;;;;;;;21.70;8.65;;;;;;;;;;5031908;28;20033;-74
2022/07/30 04:42:31;;;;;;;10.90;7.80;;;;;;;;;;5046550;28;20079;-75
2022/07/30 04:44:56;;;;;;;11.80;8.02;;;;;;;;;;5014666;28;20421;-73
2022/07/30 04:47:22;;;;;;;11.95;7.85;;;;;;;;;;5026106;28;20520;-74
2022/07/30 04:49:47;;;;;;;13.13;7.88;;;;;;;;;;5036926;28;20029;-74
2022/07/30 04:52:17;;;;;;;9.10;6.30;;;;;;;;;;5047659;28;20041;-73
2022/07/30 04:54:44;;;;;;;12.27;7.82;;;;;;;;;;5033884;28;20021;-73
2022/07/30 04:57:11;;;;;;;11.00;7.85;;;;;;;;;;5031172;28;20493;-76
2022/07/30 04:59:37;;;;;;;10.52;8.18;;;;;;;;;;5018226;28;20017;-74
2022/07/30 05:02:03;;;;;;;10.93;8.38;;;;;;;;;;5023761;28;20068;-76
2022/07/30 05:04:30;;;;;;;11.52;8.48;;;;;;;;;;5030534;28;20398;-73
2022/07/30 05:06:55;;;;;;;10.25;7.60;;;;;;;;;;5032637;28;20033;-75
2022/07/30 05:09:21;;;;;;;10.43;7.50;;;;;;;;;;5030338;28;20028;-74
2022/07/30 05:11:51;;;;;;;12.23;7.65;;;;;;;;;;5047960;28;20512;-75
2022/07/30 05:14:19;;;;;;;10.65;7.45;;;;;;;;;;5033222;28;20025;-74
2022/07/30 05:16:45;;;;;;;10.52;7.70;;;;;;;;;;5031117;28;20083;-76
2022/07/30 05:19:10;;;;;;;10.55;8.02;;;;;;;;;;5036571;28;20029;-73
2022/07/30 05:21:35;;;;;;;11.60;7.63;;;;;;;;;;5041889;28;20030;-76
2022/07/30 05:24:00;;;;;;;12.32;7.93;;;;;;;;;;5031799;28;20025;-73
2022/07/30 05:26:26;;;;;;;13.20;10.05;;;;;;;;;;5032186;28;20063;-76
2022/07/30 05:28:51;;;;;;;10.93;6.80;;;;;;;;;;5032303;28;20024;-75
2022/07/30 05:31:16;;;;;;;13.23;8.40;;;;;;;;;;5031836;28;20013;-74
2022/07/30 05:33:41;;;;;;;13.10;7.95;;;;;;;;;;5032061;28;20269;-74
2022/07/30 05:36:06;;;;;;;10.95;7.00;;;;;;;;;;5031840;28;20022;-74
2022/07/30 05:38:33;;;;;;;9.65;7.00;;;;;;;;;;5032228;28;20021;-74
2022/07/30 05:40:58;;;;;;;10.63;7.05;;;;;;;;;;5047697;28;20033;-74
2022/07/30 05:43:24;;;;;;;12.00;8.00;;;;;;;;;;5031021;28;20090;-76
2022/07/30 05:45:49;;;;;;;14.73;7.55;;;;;;;;;;5032583;28;20266;-76
2022/07/30 05:48:14;;;;;;;14.55;9.20;;;;;;;;;;5031237;28;20029;-75
2022/07/30 05:50:39;;;;;;;15.90;8.52;;;;;;;;;;5047286;28;20036;-74
2022/07/30 05:53:05;;;;;;;11.27;7.53;;;;;;;;;;5030502;28;20037;-76
2022/07/30 05:55:30;;;;;;;15.65;8.13;;;;;;;;;;5038721;28;20053;-74
2022/07/30 05:57:58;;;;;;;16.70;9.93;;;;;;;;;;5030696;28;20040;-73
2022/07/30 06:00:23;;;;;;;10.15;7.32;;;;;;;;;;5031151;28;20088;-74
2022/07/30 06:02:49;;;;;;;16.63;9.33;;;;;;;;;;5046155;28;20081;-73
2022/07/30 06:05:14;;;;;;;17.27;10.43;;;;;;;;;;5031012;28;20300;-76
2022/07/30 06:07:39;;;;;;;16.10;10.07;;;;;;;;;;5031599;28;20025;-74
2022/07/30 06:10:04;;;;;;;14.25;9.88;;;;;;;;;;5044525;28;20013;-74
2022/07/30 06:12:30;;;;;;;11.95;6.95;;;;;;;;;;5046350;28;20021;-76
2022/07/30 06:14:58;;;;;;;11.47;7.47;;;;;;;;;;5031624;28;20460;-76
2022/07/30 06:17:23;;;;;;;11.50;7.53;;;;;;;;;;5030652;28;20286;-74
2022/07/30 06:19:49;;;;;;;16.40;10.02;;;;;;;;;;5031622;28;20044;-74
2022/07/30 06:22:15;;;;;;;14.93;11.50;;;;;;;;;;5030731;28;20308;-74
2022/07/30 06:24:40;;;;;;;18.13;9.52;;;;;;;;;;5042967;28;20092;-74
2022/07/30 06:27:05;;;;;;;10.48;6.07;;;;;;;;;;5030098;28;20409;-74
2022/07/30 06:29:33;;;;;;;11.20;8.77;;;;;;;;;;5031369;28;20013;-73
2022/07/30 06:32:02;;;;;;;11.98;9.70;;;;;;;;;;5030907;28;20101;-74
2022/07/30 06:34:27;;;;;;;6.47;5.78;;;;;;;;;;5046288;28;20029;-75
2022/07/30 06:36:52;;;;;;;11.20;7.33;;;;;;;;;;5031292;28;20461;-76
2022/07/30 06:39:18;;;;;;;11.70;8.23;;;;;;;;;;5031234;28;20259;-76
2022/07/30 06:41:43;;;;;;;15.52;10.93;;;;;;;;;;5029751;28;20116;-74
2022/07/30 06:44:08;;;;;;;12.05;8.57;;;;;;;;;;5031130;28;20116;-74
2022/07/30 06:46:33;;;;;;;16.45;8.27;;;;;;;;;;5031136;28;20029;-76
2022/07/30 06:48:59;;;;;;;9.82;7.10;;;;;;;;;;5029765;28;20172;-74
2022/07/30 06:51:24;;;;;;;13.75;6.63;;;;;;;;;;5030797;28;20033;-74
2022/07/30 06:53:49;;;;;;;17.40;7.23;;;;;;;;;;5030411;28;20032;-76
2022/07/30 06:56:14;;;;;;;15.03;7.97;;;;;;;;;;5038108;28;20704;-75
2022/07/30 06:58:39;;;;;;;10.73;6.40;;;;;;;;;;5031654;28;20349;-76
2022/07/30 07:01:08;;;;;;;13.63;7.18;;;;;;;;;;5031448;28;20080;-74
2022/07/30 07:03:33;;;;;;;13.55;6.85;;;;;;;;;;5030865;28;20041;-74
2022/07/30 07:05:58;;;;;;;11.90;7.22;;;;;;;;;;5034905;28;20026;-74
2022/07/30 07:08:24;;;;;;;12.50;6.10;;;;;;;;;;5034938;28;20053;-76
2022/07/30 07:10:49;;;;;;;14.88;6.25;;;;;;;;;;5051310;28;20377;-74
2022/07/30 07:13:14;;;;;;;11.73;5.45;;;;;;;;;;5034669;28;20060;-76
2022/07/30 07:15:40;;;;;;;9.27;5.85;;;;;;;;;;5050169;28;20025;-76
2022/07/30 07:18:08;;;;;;;10.23;6.57;;;;;;;;;;5034565;28;20496;-74
2022/07/30 07:20:34;;;;;;;7.63;5.65;;;;;;;;;;5035630;28;20021;-76
2022/07/30 07:22:59;;;;;;;14.38;7.72;;;;;;;;;;5034257;28;20048;-76
2022/07/30 07:25:25;;;;;;;11.90;5.80;;;;;;;;;;5035244;28;20037;-76
2022/07/30 07:27:50;;;;;;;14.10;6.03;;;;;;;;;;5034232;28;20048;-76
2022/07/30 07:30:15;;;;;;;9.55;5.75;;;;;;;;;;5034583;28;20033;-74
2022/07/30 07:32:40;;;;;;;7.60;5.97;;;;;;;;;;5034864;28;20501;-76
2022/07/30 07:35:06;;;;;;;9.77;6.03;;;;;;;;;;5034972;28;20037;-74
2022/07/30 07:37:31;;;;;;;7.90;5.20;;;;;;;;;;5034313;28;20025;-76
2022/07/30 07:39:57;;;;;;;11.15;5.85;;;;;;;;;;5034493;28;20276;-74
2022/07/30 07:42:22;;;;;;;8.68;5.50;;;;;;;;;;5031349;28;20037;-75
2022/07/30 07:44:47;;;;;;;7.93;4.73;;;;;;;;;;5033809;28;20025;-75
2022/07/30 07:47:12;;;;;;;8.88;5.07;;;;;;;;;;5033843;28;20580;-76
2022/07/30 07:49:38;;;;;;;8.95;5.20;;;;;;;;;;5034058;28;20028;-75
2022/07/30 07:52:03;;;;;;;11.85;5.03;;;;;;;;;;5033875;28;20671;-73
2022/07/30 07:54:28;;;;;;;10.63;4.88;;;;;;;;;;5033964;28;20030;-75
2022/07/30 07:56:56;;;;;;;9.00;6.40;;;;;;;;;;5040340;28;20079;-74
2022/07/30 07:59:24;;;;;;;7.05;5.07;;;;;;;;;;5034497;28;20309;-74
2022/07/30 08:01:50;;;;;;;12.30;6.47;;;;;;;;;;5030906;28;20045;-75
2022/07/30 08:04:15;;;;;;;10.68;5.88;;;;;;;;;;5033685;28;20440;-75
2022/07/30 08:06:41;;;;;;;10.63;4.93;;;;;;;;;;5034214;28;20017;-75
2022/07/30 08:09:06;;;;;;;8.45;5.32;;;;;;;;;;5047350;28;20112;-75
2022/07/30 08:11:31;;;;;;;9.85;5.75;;;;;;;;;;5034099;28;20458;-75
2022/07/30 08:13:56;;;;;;;14.10;6.22;;;;;;;;;;5033295;28;20394;-74
2022/07/30 08:16:22;;;;;;;10.80;5.43;;;;;;;;;;5032873;28;20064;-75
2022/07/30 08:18:47;;;;;;;12.43;5.95;;;;;;;;;;5033605;28;20071;-75
2022/07/30 08:21:14;;;;;;;10.10;5.95;;;;;;;;;;5033396;28;20049;-75
2022/07/30 08:23:39;;;;;;;8.98;5.32;;;;;;;;;;5032652;28;20483;-74
2022/07/30 08:26:04;;;;;;;9.07;5.90;;;;;;;;;;5033446;28;20057;-74
2022/07/30 08:28:29;;;;;;;9.15;5.07;;;;;;;;;;5033996;28;20049;-75
2022/07/30 08:30:58;;;;;;;7.53;5.63;;;;;;;;;;5048801;28;20378;-76
2022/07/30 08:33:23;;;;;;;13.25;6.07;;;;;;;;;;5032326;28;20030;-78
2022/07/30 08:35:51;;;;;;;30.25;7.65;;;;;;;;;;5032968;28;20481;-76
2022/07/30 08:38:16;;;;;;;17.48;7.47;;;;;;;;;;5034139;28;20048;-77
2022/07/30 08:40:42;;;;;;;15.43;6.45;;;;;;;;;;5032362;28;20406;-78
2022/07/30 08:43:07;;;;;;;8.98;5.50;;;;;;;;;;5031646;28;20370;-78
2022/07/30 08:45:33;;;;;;;14.48;5.97;;;;;;;;;;5033185;28;20024;-75
2022/07/30 08:47:59;;;;;;;15.60;6.50;;;;;;;;;;5047677;28;20021;-78
2022/07/30 08:50:25;;;;;;;11.70;6.50;;;;;;;;;;5034582;28;20021;-75
2022/07/30 08:52:54;;;;;;;12.80;6.05;;;;;;;;;;5033336;28;20406;-76
2022/07/30 08:55:26;;;;;;;13.48;6.97;;;;;;;;;;5040071;28;20044;-78
2022/07/30 08:57:51;;;;;;;13.20;5.57;;;;;;;;;;5034235;28;20502;-78
2022/07/30 09:00:16;;;;;;;10.52;5.72;;;;;;;;;;5034671;28;20053;-75
2022/07/30 09:02:42;;;;;;;13.63;5.22;;;;;;;;;;5049244;28;20049;-78
2022/07/30 09:05:08;;;;;;;7.18;4.95;;;;;;;;;;5048854;28;20060;-78
2022/07/30 09:07:34;;;;;;;11.35;4.93;;;;;;;;;;5033471;28;20041;-78
2022/07/30 09:09:59;;;;;;;6.93;4.57;;;;;;;;;;5033297;28;20386;-78
2022/07/30 09:12:31;;;;;;;10.13;5.60;;;;;;;;;;5032788;28;20076;-77
2022/07/30 09:15:03;;;;;;;8.68;4.68;;;;;;;;;;5033372;28;20024;-75
2022/07/30 09:17:41;;;;;;;10.02;5.00;;;;;;;;;;5046182;28;20037;-74
2022/07/30 09:20:07;;;;;;;9.55;4.95;;;;;;;;;;5033512;28;20119;-76
2022/07/30 09:22:42;;;;;;;9.80;4.88;;;;;;;;;;5033315;28;20021;-76
2022/07/30 09:25:07;;;;;;;9.55;4.70;;;;;;;;;;5032350;28;20030;-75
2022/07/30 09:27:46;;;;;;;6.00;4.28;;;;;;;;;;5047996;28;20017;-75
2022/07/30 09:30:11;;;;;;;7.22;3.97;;;;;;;;;;5033438;28;20041;-75
2022/07/30 09:32:55;;;;;;;9.82;4.47;;;;;;;;;;5036047;28;20017;-74
2022/07/30 09:35:23;;;;;;;9.15;5.05;;;;;;;;;;5051849;28;20032;-78
2022/07/30 09:37:57;;;;;;;8.48;5.55;;;;;;;;;;5033533;28;20405;-76
2022/07/30 09:40:22;;;;;;;9.88;4.50;;;;;;;;;;5048854;28;20036;-78
2022/07/30 09:42:59;;;;;;;5.90;4.32;;;;;;;;;;5032410;28;20013;-75
2022/07/30 09:45:25;;;;;;;7.78;3.83;;;;;;;;;;5031350;28;20499;-76
2022/07/30 09:47:50;;;;;;;8.95;4.25;;;;;;;;;;5048629;28;20057;-75
2022/07/30 09:50:16;;;;;;;7.68;4.05;;;;;;;;;;5039402;28;20393;-78
2022/07/30 09:52:43;;;;;;;6.18;4.07;;;;;;;;;;5052864;28;20031;-77
2022/07/30 09:55:09;;;;;;;7.25;4.20;;;;;;;;;;5032795;28;20112;-78
2022/07/30 09:57:34;;;;;;;8.05;4.20;;;;;;;;;;5047732;28;20063;-78
2022/07/30 10:00:18;;;;;;;6.22;3.70;;;;;;;;;;5032075;28;20119;-76
2022/07/30 10:02:44;;;;;;;9.20;3.28;;;;;;;;;;5032553;28;20100;-78
2022/07/30 10:05:09;;;;;;;7.20;4.25;;;;;;;;;;5031281;28;20041;-74
2022/07/30 10:07:34;;;;;;;5.45;3.58;;;;;;;;;;5033034;28;20359;-75
2022/07/30 10:10:00;;;;;;;9.80;3.05;;;;;;;;;;5033356;28;20120;-78
2022/07/30 10:12:25;;;;;;;5.07;3.30;;;;;;;;;;5030996;28;20029;-76
2022/07/30 10:14:52;;;;;;;7.53;3.42;;;;;;;;;;5031660;28;20056;-77
2022/07/30 10:17:17;;;;;;;8.18;3.47;;;;;;;;;;5048178;28;20029;-78
2022/07/30 10:19:43;;;;;;;5.30;3.17;;;;;;;;;;5032825;28;20096;-78
2022/07/30 10:22:12;;;;;;;6.50;3.65;;;;;;;;;;5031486;28;20053;-78
2022/07/30 10:24:37;;;;;;;5.65;3.38;;;;;;;;;;5033516;28;20017;-78
2022/07/30 10:27:02;;;;;;;4.45;2.85;;;;;;;;;;5032282;28;20026;-77
2022/07/30 10:29:28;;;;;;;3.97;3.55;;;;;;;;;;5032800;28;20053;-75
2022/07/30 10:31:53;;;;;;;5.50;3.47;;;;;;;;;;5031679;28;20041;-76
2022/07/30 10:34:19;;;;;;;4.85;3.58;;;;;;;;;;5031881;28;20489;-77
2022/07/30 10:36:50;;;;;;;9.13;3.47;;;;;;;;;;5031282;28;20033;-75
2022/07/30 10:39:23;;;;;;;10.80;3.42;;;;;;;;;;5033395;28;20025;-74
2022/07/30 10:42:01;;;;;;;12.52;5.40;;;;;;;;;;5045851;28;20064;-77
2022/07/30 10:44:26;;;;;;;8.40;4.35;;;;;;;;;;5056935;28;20090;-77
2022/07/30 10:46:54;;;;;;;7.40;3.47;;;;;;;;;;5036646;28;20462;-75
2022/07/30 10:49:19;;;;;;;5.82;2.92;;;;;;;;;;5036358;28;20270;-75
2022/07/30 10:51:53;;;;;;;7.13;3.17;;;;;;;;;;5036211;28;20032;-77
2022/07/30 10:54:34;;;;;;;4.90;3.10;;;;;;;;;;5035906;28;20444;-77
2022/07/30 10:57:09;;;;;;;6.47;4.38;;;;;;;;;;5055924;28;20040;-76
2022/07/30 11:00:00;;;;;;;3.50;3.20;;;;;;;;;;5054016;28;20029;-78
2022/07/30 11:02:34;;;;;;;4.13;2.70;;;;;;;;;;5019161;28;20041;-78
2022/07/30 11:05:17;;;;;;;6.22;2.63;;;;;;;;;;5036353;28;20036;-75
2022/07/30 11:07:43;;;;;;;6.75;2.80;;;;;;;;;;5034628;28;20151;-76
2022/07/30 11:10:28;;;;;;;7.97;3.75;;;;;;;;;;5034081;28;20064;-75
2022/07/30 11:12:54;;;;;;;4.55;2.47;;;;;;;;;;5034988;28;20025;-74
2022/07/30 11:15:21;;;;;;;4.90;3.45;;;;;;;;;;5051123;28;20432;-78
2022/07/30 11:17:55;;;;;;;5.50;2.80;;;;;;;;;;5051493;28;20032;-75
2022/07/30 11:20:20;;;;;;;8.35;2.70;;;;;;;;;;5036291;28;20449;-77
2022/07/30 11:22:48;;;;;;;7.28;3.70;;;;;;;;;;5035797;28;20056;-75
2022/07/30 11:25:25;;;;;;;7.45;2.75;;;;;;;;;;5034131;28;20075;-75
2022/07/30 11:27:51;;;;;;;4.65;2.80;;;;;;;;;;5033711;28;20047;-74
2022/07/30 11:30:16;;;;;;;7.03;2.70;;;;;;;;;;5051168;28;20552;-76
2022/07/30 11:32:42;;;;;;;9.40;3.53;;;;;;;;;;5050746;28;20034;-75
2022/07/30 11:35:20;;;;;;;6.70;4.15;;;;;;;;;;5051058;28;20264;-77
2022/07/30 11:38:00;;;;;;;5.10;2.92;;;;;;;;;;5034258;28;20087;-74
2022/07/30 11:40:29;;;;;;;4.32;2.75;;;;;;;;;;5035086;28;20481;-74
2022/07/30 11:43:14;;;;;;;3.70;2.55;;;;;;;;;;5034023;28;20037;-77
2022/07/30 11:45:40;;;;;;;4.82;2.92;;;;;;;;;;5034575;28;20029;-74
2022/07/30 11:48:08;;;;;;;2.60;2.38;;;;;;;;;;5050298;28;20045;-77
2022/07/30 11:50:34;;;;;;;4.43;2.35;;;;;;;;;;5057146;28;20032;-77
2022/07/30 11:53:00;;;;;;;7.78;2.60;;;;;;;;;;5050113;28;20112;-77
2022/07/30 11:55:27;;;;;;;5.60;2.28;;;;;;;;;;5043301;28;20047;-77
2022/07/30 11:57:56;;;;;;;4.22;1.85;;;;;;;;;;5039874;28;20560;-74
2022/07/30 12:00:22;;;;;;;4.80;2.78;;;;;;;;;;5035510;28;20026;-75
2022/07/30 12:02:48;;;;;;;6.57;2.28;;;;;;;;;;5029535;28;20046;-77
2022/07/30 12:05:13;;;;;;;5.70;1.90;;;;;;;;;;5034771;28;20060;-77
2022/07/30 12:07:39;;;;;;;6.10;1.98;;;;;;;;;;5035629;28;20238;-77
2022/07/30 12:10:14;;;;;;;16.35;4.28;;;;;;;;;;5065969;28;20428;-75
2022/07/30 12:12:39;;;;;;;5.03;1.90;;;;;;;;;;5014886;28;20060;-77
2022/07/30 12:15:04;;;;;;;4.43;1.90;;;;;;;;;;5049460;28;20458;-77
2022/07/30 12:17:40;;;;;;;6.20;2.38;;;;;;;;;;5049271;28;20029;-77
2022/07/30 12:20:13;;;;;;;4.85;1.85;;;;;;;;;;5034029;28;20041;-75
2022/07/30 12:22:38;;;;;;;2.85;1.80;;;;;;;;;;5034236;28;20462;-75
2022/07/30 12:25:07;;;;;;;8.63;2.78;;;;;;;;;;5034639;28;20040;-77
2022/07/30 12:27:32;;;;;;;4.13;2.53;;;;;;;;;;5033936;28;20022;-75
2022/07/30 12:29:57;;;;;;;3.30;2.20;;;;;;;;;;5050203;28;20473;-76
2022/07/30 12:32:23;;;;;;;4.20;2.30;;;;;;;;;;5035115;28;20278;-75
2022/07/30 12:34:55;;;;;;;2.83;2.40;;;;;;;;;;5049569;28;20024;-77
2022/07/30 12:37:20;;;;;;;4.35;2.20;;;;;;;;;;5033834;28;20029;-76
2022/07/30 12:39:45;;;;;;;3.55;2.30;;;;;;;;;;5049426;28;20655;-75
2022/07/30 12:42:17;;;;;;;5.97;2.58;;;;;;;;;;5032555;28;20367;-75
2022/07/30 12:44:47;;;;;;;4.38;2.05;;;;;;;;;;5034834;28;20374;-77
2022/07/30 12:47:22;;;;;;;3.35;2.53;;;;;;;;;;5033783;28;20048;-75
2022/07/30 12:49:48;;;;;;;3.20;2.05;;;;;;;;;;5018123;28;20029;-74
2022/07/30 12:52:22;;;;;;;4.00;2.60;;;;;;;;;;5034205;28;20036;-77
2022/07/30 12:55:05;;;;;;;3.65;2.20;;;;;;;;;;5019790;28;20489;-74
2022/07/30 12:57:49;;;;;;;4.03;2.45;;;;;;;;;;5042352;28;20029;-76
2022/07/30 13:00:15;;;;;;;3.05;2.40;;;;;;;;;;5052068;28;20374;-76
2022/07/30 13:02:40;;;;;;;3.72;2.00;;;;;;;;;;5032056;28;20045;-75
2022/07/30 13:05:05;;;;;;;4.80;2.42;;;;;;;;;;5048906;28;20388;-77
2022/07/30 13:07:35;;;;;;;6.70;2.53;;;;;;;;;;5032861;28;20037;-77
2022/07/30 13:10:10;;;;;;;4.00;2.70;;;;;;;;;;5034014;28;20071;-76
2022/07/30 13:12:35;;;;;;;5.90;2.45;;;;;;;;;;5032830;28;20035;-78
2022/07/30 13:15:08;;;;;;;4.22;2.55;;;;;;;;;;5034184;28;20521;-77
2022/07/30 13:17:36;;;;;;;8.18;2.70;;;;;;;;;;5064750;28;20034;-76
2022/07/30 13:20:01;;;;;;;3.97;2.95;;;;;;;;;;5033178;28;20030;-75
2022/07/30 13:22:27;;;;;;;4.88;2.80;;;;;;;;;;5031371;28;20132;-75
2022/07/30 13:24:52;;;;;;;2.73;2.53;;;;;;;;;;5033083;28;20040;-78
2022/07/30 13:27:17;;;;;;;6.05;2.50;;;;;;;;;;5048640;28;20401;-78
2022/07/30 13:29:46;;;;;;;7.18;2.83;;;;;;;;;;5048715;28;20014;-75
2022/07/30 13:32:11;;;;;;;6.18;2.50;;;;;;;;;;5033278;28;20531;-74
2022/07/30 13:34:36;;;;;;;10.10;3.10;;;;;;;;;;5032816;28;20113;-76
2022/07/30 13:37:01;;;;;;;7.43;2.03;;;;;;;;;;5032904;28;20048;-75
2022/07/30 13:39:27;;;;;;;4.43;2.42;;;;;;;;;;5033314;28;20349;-75
2022/07/30 13:41:52;;;;;;;3.70;2.63;;;;;;;;;;5031145;28;20130;-76
2022/07/30 13:44:17;;;;;;;4.15;2.08;;;;;;;;;;5048425;28;20040;-78
2022/07/30 13:46:45;;;;;;;7.68;2.40;;;;;;;;;;5032361;28;20033;-77
2022/07/30 13:49:10;;;;;;;4.53;2.30;;;;;;;;;;5048095;28;20049;-75
2022/07/30 13:51:36;;;;;;;10.50;2.80;;;;;;;;;;5032334;28;20068;-74
2022/07/30 13:54:01;;;;;;;11.00;2.22;;;;;;;;;;5032781;28;20692;-75
2022/07/30 13:56:26;;;;;;;16.13;14.07;;;;;;;;;;5048806;28;20066;-75
2022/07/30 13:58:51;;;;;;;19.17;17.43;;;;;;;;;;5032544;28;20470;-77
2022/07/30 14:01:16;;;;;;;9.70;8.70;;;;;;;;;;5032180;28;20294;-78
2022/07/30 14:03:42;;;;;;;6.35;5.65;;;;;;;;;;5046968;28;20298;-77
2022/07/30 14:06:07;;;;;;;8.70;4.33;;;;;;;;;;5032194;28;20026;-76
2022/07/30 14:08:32;;;;;;;4.70;2.95;;;;;;;;;;5031772;28;20386;-78
2022/07/30 14:10:57;;;;;;;3.10;2.80;;;;;;;;;;5032460;28;20037;-75
2022/07/30 14:13:23;;;;;;;3.33;2.88;;;;;;;;;;5030593;28;20129;-78
2022/07/30 14:15:51;;;;;;;5.75;3.28;;;;;;;;;;5032542;28;20017;-77
2022/07/30 14:18:16;;;;;;;3.78;3.10;;;;;;;;;;5046428;28;20032;-74
2022/07/30 14:20:42;;;;;;;3.95;2.50;;;;;;;;;;5031917;28;20017;-77
2022/07/30 14:23:07;;;;;;;9.65;3.42;;;;;;;;;;5032494;28;20049;-77
2022/07/30 14:25:36;;;;;;;5.70;2.60;;;;;;;;;;5047490;28;20261;-77
2022/07/30 14:28:02;;;;;;;5.22;2.33;;;;;;;;;;5031800;28;20156;-74
2022/07/30 14:30:29;;;;;;;4.18;2.25;;;;;;;;;;5031079;28;20116;-77
2022/07/30 14:32:54;;;;;;;3.65;2.50;;;;;;;;;;5047371;28;20029;-75
2022/07/30 14:35:19;;;;;;;5.55;2.72;;;;;;;;;;5031016;28;20035;-75